createdAt,value
2018-02-22T00:02:07.049Z,98.70
2018-02-22T00:04:33.800Z,99.20
2018-02-22T00:07:00.541Z,98.17
2018-02-22T00:09:27.281Z,100.13
2018-02-22T00:11:54.026Z,86.43
2018-02-22T00:14:20.765Z,88.97
2018-02-22T00:16:47.504Z,94.10
2018-02-22T00:19:14.222Z,95.93
2018-02-22T00:21:40.965Z,94.80
2018-02-22T00:24:07.682Z,94.35
2018-02-22T00:26:34.394Z,108.57
2018-02-22T00:29:01.137Z,97.07
2018-02-22T00:31:27.855Z,91.15
2018-02-22T00:33:54.604Z,96.60
2018-02-22T00:36:21.355Z,101.93
2018-02-22T00:38:48.073Z,88.68
2018-02-22T00:41:14.833Z,103.90
2018-02-22T00:43:41.552Z,98.15
2018-02-22T00:46:08.274Z,94.20
2018-02-22T00:48:35.023Z,99.90
2018-02-22T00:51:01.731Z,86.57
2018-02-22T00:53:28.435Z,100.87
2018-02-22T00:55:55.177Z,101.07
2018-02-22T00:58:21.918Z,106.18
2018-02-22T01:00:48.664Z,99.07
2018-02-22T01:03:15.395Z,97.18
2018-02-22T01:05:42.121Z,101.83
2018-02-22T01:08:08.853Z,105.78
2018-02-22T01:10:35.594Z,93.90
2018-02-22T01:13:02.318Z,97.03
2018-02-22T01:15:29.053Z,90.63
2018-02-22T01:17:55.770Z,97.12
2018-02-22T01:20:22.504Z,89.30
2018-02-22T01:22:49.201Z,90.30
2018-02-22T01:25:15.922Z,88.45
2018-02-22T01:27:42.661Z,95.60
2018-02-22T01:30:09.383Z,92.25
2018-02-22T01:32:36.114Z,84.60
2018-02-22T01:35:02.853Z,96.32
2018-02-22T01:37:29.618Z,89.37
2018-02-22T01:39:56.343Z,93.03
2018-02-22T01:42:23.122Z,102.40
2018-02-22T01:44:49.821Z,96.07
2018-02-22T01:47:16.563Z,99.47
2018-02-22T01:49:43.363Z,88.72
2018-02-22T01:52:10.056Z,87.30
2018-02-22T01:54:36.790Z,96.23
2018-02-22T01:57:03.515Z,98.90
2018-02-22T01:59:30.265Z,90.40
2018-02-22T02:01:56.982Z,94.87
2018-02-22T02:04:23.705Z,94.85
2018-02-22T02:06:50.438Z,99.93
2018-02-22T02:09:17.175Z,94.47
2018-02-22T02:11:43.925Z,92.03
2018-02-22T02:14:10.646Z,86.40
2018-02-22T02:16:37.408Z,85.95
2018-02-22T02:19:04.140Z,79.72
2018-02-22T02:21:30.880Z,87.17
2018-02-22T02:23:57.628Z,82.15
2018-02-22T02:26:24.352Z,86.18
2018-02-22T02:28:51.080Z,93.45
2018-02-22T02:31:17.794Z,85.47
2018-02-22T02:33:44.562Z,87.93
2018-02-22T02:36:11.277Z,84.05
2018-02-22T02:38:37.990Z,80.55
2018-02-22T02:41:04.729Z,84.57
2018-02-22T02:43:31.441Z,86.12
2018-02-22T02:45:58.149Z,81.93
2018-02-22T02:48:24.922Z,83.30
2018-02-22T02:50:51.655Z,77.93
2018-02-22T02:53:18.395Z,78.00
2018-02-22T02:55:45.129Z,76.73
2018-02-22T02:58:11.860Z,88.93
2018-02-22T03:00:38.587Z,72.78
2018-02-22T03:03:05.309Z,77.90
2018-02-22T03:05:32.026Z,78.62
2018-02-22T03:07:58.751Z,79.07
2018-02-22T03:10:25.510Z,81.80
2018-02-22T03:12:52.259Z,82.95
2018-02-22T03:15:18.996Z,89.78
2018-02-22T03:17:45.721Z,82.47
2018-02-22T03:20:12.426Z,84.35
2018-02-22T03:22:39.172Z,76.45
2018-02-22T03:25:05.885Z,73.18
2018-02-22T03:27:32.627Z,90.35
2018-02-22T03:29:59.352Z,82.72
2018-02-22T03:32:26.059Z,75.03
2018-02-22T03:34:52.794Z,78.00
2018-02-22T03:37:19.525Z,78.32
2018-02-22T03:39:46.268Z,80.32
2018-02-22T03:42:13.016Z,77.60
2018-02-22T03:44:39.735Z,74.62
2018-02-22T03:47:06.488Z,84.45
2018-02-22T03:49:33.206Z,81.47
2018-02-22T03:51:59.935Z,66.62
2018-02-22T03:54:26.721Z,69.87
2018-02-22T03:56:53.415Z,75.90
2018-02-22T03:59:20.170Z,75.55
2018-02-22T04:01:46.886Z,76.25
2018-02-22T04:04:13.605Z,72.55
2018-02-22T04:06:40.353Z,73.12
2018-02-22T04:09:07.060Z,64.60
2018-02-22T04:11:33.803Z,69.90
2018-02-22T04:14:00.506Z,66.55
2018-02-22T04:16:27.221Z,61.22
2018-02-22T04:18:53.982Z,62.50
2018-02-22T04:21:20.725Z,67.68
2018-02-22T04:23:47.458Z,66.95
2018-02-22T04:26:14.186Z,73.22
2018-02-22T04:28:40.890Z,67.25
2018-02-22T04:31:07.637Z,60.75
2018-02-22T04:33:34.358Z,60.53
2018-02-22T04:36:01.116Z,68.47
2018-02-22T04:38:27.847Z,74.57
2018-02-22T04:40:54.554Z,74.07
2018-02-22T04:43:21.290Z,65.40
2018-02-22T04:45:48.003Z,76.03
2018-02-22T04:48:14.726Z,59.47
2018-02-22T04:50:41.444Z,63.75
2018-02-22T04:53:08.158Z,59.25
2018-02-22T04:55:34.904Z,63.13
2018-02-22T04:58:01.610Z,61.05
2018-02-22T05:00:28.388Z,76.70
2018-02-22T05:02:55.137Z,68.30
2018-02-22T05:05:21.858Z,62.75
2018-02-22T05:07:48.621Z,65.62
2018-02-22T05:10:15.350Z,67.00
2018-02-22T05:12:42.113Z,61.40
2018-02-22T05:15:08.855Z,61.45
2018-02-22T05:17:35.591Z,57.03
2018-02-22T05:20:02.315Z,41.70
2018-02-22T05:22:29.043Z,52.58
2018-02-22T05:24:55.775Z,52.67
2018-02-22T05:27:22.509Z,41.83
2018-02-22T05:29:49.213Z,36.58
2018-02-22T05:32:15.952Z,32.20
2018-02-22T05:34:42.685Z,45.75
2018-02-22T05:37:09.393Z,41.85
2018-02-22T05:39:36.128Z,42.90
2018-02-22T05:42:02.853Z,49.92
2018-02-22T05:44:29.614Z,56.37
2018-02-22T05:46:56.340Z,52.28
2018-02-22T05:49:23.062Z,51.40
2018-02-22T05:51:49.803Z,51.03
2018-02-22T05:54:16.532Z,57.70
2018-02-22T05:56:43.275Z,49.53
2018-02-22T05:59:10.004Z,52.38
2018-02-22T06:01:36.751Z,44.63
2018-02-22T06:04:03.492Z,45.15
2018-02-22T06:06:30.231Z,46.40
2018-02-22T06:08:56.959Z,40.22
2018-02-22T06:11:23.664Z,40.47
2018-02-22T06:13:50.482Z,42.97
2018-02-22T06:16:17.203Z,49.00
2018-02-22T06:18:43.930Z,49.95
2018-02-22T06:21:10.679Z,42.53
2018-02-22T06:23:37.394Z,46.63
2018-02-22T06:26:04.100Z,48.85
2018-02-22T06:28:30.850Z,40.20
2018-02-22T06:30:57.563Z,41.55
2018-02-22T06:33:24.336Z,42.62
2018-02-22T06:35:51.068Z,44.80
2018-02-22T06:38:17.779Z,46.42
2018-02-22T06:40:44.513Z,44.45
2018-02-22T06:43:11.227Z,46.80
2018-02-22T06:45:37.967Z,41.40
2018-02-22T06:48:04.714Z,41.40
2018-02-22T06:50:31.429Z,42.53
2018-02-22T06:52:58.176Z,40.30
2018-02-22T06:55:24.914Z,39.40
2018-02-22T06:57:51.659Z,44.15
2018-02-22T07:00:18.378Z,43.28
2018-02-22T07:02:45.142Z,46.97
2018-02-22T07:05:11.883Z,41.53
2018-02-22T07:07:38.597Z,41.95
2018-02-22T07:10:05.337Z,42.28
2018-02-22T07:12:32.051Z,46.50
2018-02-22T07:14:58.806Z,40.80
2018-02-22T07:17:25.547Z,43.70
2018-02-22T07:19:52.288Z,41.92
2018-02-22T07:22:19.029Z,39.20
2018-02-22T07:24:45.770Z,36.47
2018-02-22T07:27:12.481Z,43.80
2018-02-22T07:29:39.197Z,36.75
2018-02-22T07:32:05.938Z,38.30
2018-02-22T07:34:32.675Z,34.03
2018-02-22T07:36:59.423Z,37.60
2018-02-22T07:39:26.154Z,36.60
2018-02-22T07:41:52.870Z,32.83
2018-02-22T07:44:19.594Z,32.87
2018-02-22T07:46:46.316Z,36.07
2018-02-22T07:49:13.074Z,33.47
2018-02-22T07:51:39.788Z,35.95
2018-02-22T07:54:06.554Z,36.22
2018-02-22T07:56:33.276Z,32.13
2018-02-22T07:59:00.002Z,31.05
2018-02-22T08:01:26.729Z,33.20
2018-02-22T08:03:53.426Z,36.20
2018-02-22T08:06:20.169Z,38.08
2018-02-22T08:08:46.885Z,49.53
2018-02-22T08:11:13.607Z,47.77
2018-02-22T08:13:40.333Z,58.20
2018-02-22T08:16:07.089Z,55.90
2018-02-22T08:18:33.833Z,69.90
2018-02-22T08:21:00.573Z,67.60
2018-02-22T08:23:27.297Z,67.87
2018-02-22T08:25:54.047Z,69.00
2018-02-22T08:28:20.758Z,55.47
2018-02-22T08:30:47.479Z,59.13
2018-02-22T08:33:14.183Z,54.13
2018-02-22T08:35:40.921Z,58.53
2018-02-22T08:38:07.665Z,60.77
2018-02-22T08:40:34.401Z,63.28
2018-02-22T08:43:01.108Z,46.93
2018-02-22T08:45:27.842Z,51.60
2018-02-22T08:47:54.543Z,43.27
2018-02-22T08:50:21.323Z,45.07
2018-02-22T08:52:48.028Z,39.23
2018-02-22T08:55:14.748Z,40.40
2018-02-22T08:57:41.495Z,41.77
2018-02-22T09:00:08.233Z,36.95
2018-02-22T09:02:35.025Z,41.53
2018-02-22T09:05:01.735Z,35.37
2018-02-22T09:07:28.469Z,38.80
2018-02-22T09:09:55.299Z,39.00
2018-02-22T09:12:21.996Z,52.93
2018-02-22T09:14:48.702Z,50.53
2018-02-22T09:17:15.434Z,48.63
2018-02-22T09:19:42.163Z,50.90
2018-02-22T09:22:08.901Z,33.90
2018-02-22T09:24:35.616Z,823.70
2018-02-22T09:27:02.337Z,1999.90
2018-02-22T09:29:29.086Z,1999.90
2018-02-22T09:31:55.816Z,1999.90
2018-02-22T09:34:22.562Z,1999.90
2018-02-22T09:36:49.312Z,1999.90
2018-02-22T09:39:16.042Z,1999.90
2018-02-22T09:41:42.797Z,1999.90
2018-02-22T09:44:09.532Z,44.20
2018-02-22T09:46:36.293Z,43.90
2018-02-22T09:49:03.015Z,45.53
2018-02-22T09:51:29.754Z,47.60
2018-02-22T09:53:56.489Z,44.90
2018-02-22T09:56:23.203Z,50.33
2018-02-22T09:58:49.932Z,52.20
2018-02-22T10:01:16.649Z,42.20
2018-02-22T10:03:43.380Z,40.33
2018-02-22T10:06:10.137Z,46.47
2018-02-22T10:08:36.845Z,41.93
2018-02-22T10:11:03.582Z,45.07
2018-02-22T10:13:30.294Z,44.90
2018-02-22T10:15:57.049Z,44.47
2018-02-22T10:18:23.766Z,42.43
2018-02-22T10:20:50.475Z,39.23
2018-02-22T10:23:17.177Z,38.93
2018-02-22T10:25:43.910Z,38.60
2018-02-22T10:28:10.623Z,41.53
2018-02-22T10:30:37.330Z,47.20
2018-02-22T10:33:04.065Z,38.70
2018-02-22T10:35:30.808Z,50.42
2018-02-22T10:37:57.559Z,48.55
2018-02-22T10:40:24.288Z,48.30
2018-02-22T10:42:51.003Z,51.50
2018-02-22T10:45:17.709Z,41.50
2018-02-22T10:47:44.468Z,46.55
2018-02-22T10:50:11.209Z,46.25
2018-02-22T10:52:37.916Z,46.90
2018-02-22T10:55:04.663Z,49.83
2018-02-22T10:57:31.368Z,52.40
2018-02-22T10:59:58.084Z,53.73
2018-02-22T11:02:30.437Z,50.63
2018-02-22T11:04:57.263Z,44.65
2018-02-22T11:07:24.027Z,51.53
2018-02-22T11:09:50.762Z,49.47
2018-02-22T11:12:17.497Z,53.20
2018-02-22T11:14:44.224Z,51.87
2018-02-22T11:17:10.933Z,49.03
2018-02-22T11:19:37.688Z,52.60
2018-02-22T11:22:04.387Z,49.97
2018-02-22T11:24:31.146Z,50.10
2018-02-22T11:26:57.898Z,48.93
2018-02-22T11:29:24.605Z,43.47
2018-02-22T11:31:51.337Z,46.60
2018-02-22T11:34:18.053Z,46.33
2018-02-22T11:36:44.799Z,41.47
2018-02-22T11:39:11.528Z,42.17
2018-02-22T11:41:38.280Z,44.10
2018-02-22T11:44:05.007Z,43.00
2018-02-22T11:46:31.726Z,44.43
2018-02-22T11:48:58.464Z,47.60
2018-02-22T11:51:25.169Z,51.03
2018-02-22T11:53:51.897Z,44.20
2018-02-22T11:56:18.634Z,48.03
2018-02-22T11:58:45.348Z,52.30
2018-02-22T12:01:12.088Z,52.13
2018-02-22T12:03:38.846Z,47.22
2018-02-22T12:06:05.615Z,53.57
2018-02-22T12:08:32.354Z,45.50
2018-02-22T12:10:59.083Z,54.97
2018-02-22T12:13:25.841Z,50.30
2018-02-22T12:15:52.610Z,47.10
2018-02-22T12:18:19.364Z,44.47
2018-02-22T12:20:46.067Z,45.90
2018-02-22T12:23:12.778Z,45.33
2018-02-22T12:25:39.531Z,47.70
2018-02-22T12:28:06.254Z,42.80
2018-02-22T12:30:32.982Z,43.93
2018-02-22T12:32:59.711Z,53.20
2018-02-22T12:35:26.438Z,42.70
2018-02-22T12:37:53.171Z,46.33
2018-02-22T12:40:19.883Z,43.07
2018-02-22T12:42:46.620Z,43.30
2018-02-22T12:45:13.323Z,49.87
2018-02-22T12:47:40.031Z,48.97
2018-02-22T12:50:06.759Z,50.90
2018-02-22T12:52:33.468Z,47.27
2018-02-22T12:55:00.235Z,44.80
2018-02-22T12:57:26.953Z,50.60
2018-02-22T12:59:53.697Z,50.90
2018-02-22T13:02:20.434Z,46.60
2018-02-22T13:04:47.140Z,43.33
2018-02-22T13:07:13.866Z,47.93
2018-02-22T13:09:40.591Z,45.83
2018-02-22T13:12:07.329Z,48.17
2018-02-22T13:14:34.073Z,54.33
2018-02-22T13:17:00.783Z,45.13
2018-02-22T13:19:27.522Z,51.30
2018-02-22T13:21:54.483Z,51.93
2018-02-22T13:24:21.240Z,43.47
2018-02-22T13:26:47.955Z,47.20
2018-02-22T13:29:14.672Z,45.33
2018-02-22T13:31:41.408Z,43.37
2018-02-22T13:34:14.083Z,46.30
2018-02-22T13:36:40.810Z,44.17
2018-02-22T13:39:07.531Z,48.93
2018-02-22T13:41:34.283Z,57.23
2018-02-22T13:44:06.791Z,55.73
2018-02-22T13:46:33.514Z,50.67
2018-02-22T13:49:05.988Z,56.13
2018-02-22T13:51:32.686Z,53.87
2018-02-22T13:53:59.441Z,53.33
2018-02-22T13:56:31.995Z,55.30
2018-02-22T13:58:58.730Z,53.03
2018-02-22T14:01:31.212Z,51.57
2018-02-22T14:03:57.951Z,53.67
2018-02-22T14:06:24.753Z,46.93
2018-02-22T14:08:51.488Z,49.63
2018-02-22T14:11:18.210Z,51.00
2018-02-22T14:13:44.966Z,50.07
2018-02-22T14:16:11.737Z,54.30
2018-02-22T14:18:38.458Z,57.00
2018-02-22T14:21:05.200Z,46.80
2018-02-22T14:23:31.936Z,51.80
2018-02-22T14:25:58.659Z,51.80
2018-02-22T14:28:25.382Z,49.77
2018-02-22T14:30:52.110Z,46.73
2018-02-22T14:33:18.806Z,46.37
2018-02-22T14:35:45.549Z,46.50
2018-02-22T14:38:12.285Z,48.63
2018-02-22T14:40:38.989Z,43.13
2018-02-22T14:43:05.706Z,48.30
2018-02-22T14:45:32.480Z,49.38
2018-02-22T14:47:59.252Z,50.63
2018-02-22T14:50:25.981Z,51.53
2018-02-22T14:52:52.690Z,48.47
2018-02-22T14:55:19.424Z,47.70
2018-02-22T14:57:46.173Z,46.92
2018-02-22T15:00:12.882Z,51.77
2018-02-22T15:02:39.610Z,56.07
2018-02-22T15:05:06.361Z,49.37
2018-02-22T15:07:33.133Z,47.57
2018-02-22T15:09:59.881Z,53.93
2018-02-22T15:12:26.609Z,48.77
2018-02-22T15:14:53.331Z,54.03
2018-02-22T15:17:20.054Z,49.53
2018-02-22T15:19:46.800Z,48.90
2018-02-22T15:22:13.541Z,49.80
2018-02-22T15:24:40.257Z,49.60
2018-02-22T15:27:06.997Z,56.97
2018-02-22T15:29:33.718Z,50.57
2018-02-22T15:32:00.429Z,47.17
2018-02-22T15:34:27.163Z,54.13
2018-02-22T15:36:53.870Z,52.03
2018-02-22T15:39:20.608Z,52.80
2018-02-22T15:41:47.334Z,48.47
2018-02-22T15:44:14.075Z,56.88
2018-02-22T15:46:40.786Z,56.63
2018-02-22T15:49:07.547Z,54.05
2018-02-22T15:51:34.282Z,53.67
2018-02-22T15:54:00.995Z,50.88
2018-02-22T15:56:27.742Z,53.90
2018-02-22T15:58:54.453Z,50.95
2018-02-22T16:01:21.207Z,52.70
2018-02-22T16:03:47.961Z,46.88
2018-02-22T16:06:14.699Z,48.33
2018-02-22T16:08:41.446Z,52.67
2018-02-22T16:11:08.206Z,54.72
2018-02-22T16:13:34.973Z,50.13
2018-02-22T16:16:01.706Z,50.65
2018-02-22T16:18:28.424Z,49.35
2018-02-22T16:20:55.161Z,50.95
2018-02-22T16:23:21.896Z,50.45
2018-02-22T16:25:48.664Z,50.97
2018-02-22T16:28:15.385Z,49.80
2018-02-22T16:30:42.111Z,54.03
2018-02-22T16:33:08.848Z,59.92
2018-02-22T16:35:35.571Z,58.33
2018-02-22T16:38:02.315Z,59.85
2018-02-22T16:40:29.106Z,58.20
2018-02-22T16:42:55.818Z,59.70
2018-02-22T16:45:22.571Z,56.67
2018-02-22T16:47:49.307Z,58.95
2018-02-22T16:50:16.070Z,58.15
2018-02-22T16:52:42.811Z,57.80
2018-02-22T16:55:09.553Z,57.97
2018-02-22T16:57:36.301Z,59.47
2018-02-22T17:00:03.085Z,57.58
2018-02-22T17:02:29.832Z,56.90
2018-02-22T17:04:56.581Z,56.35
2018-02-22T17:07:23.327Z,56.37
2018-02-22T17:09:50.075Z,57.03
2018-02-22T17:12:16.803Z,63.38
2018-02-22T17:14:43.533Z,57.88
2018-02-22T17:17:10.269Z,62.70
2018-02-22T17:19:36.991Z,66.55
2018-02-22T17:22:03.752Z,63.05
2018-02-22T17:24:30.470Z,60.08
2018-02-22T17:27:02.994Z,63.42
2018-02-22T17:29:35.433Z,66.75
2018-02-22T17:32:07.998Z,58.80
2018-02-22T17:34:34.759Z,56.70
2018-02-22T17:37:15.146Z,60.80
2018-02-22T17:39:44.901Z,53.42
2018-02-22T17:42:11.673Z,58.63
2018-02-22T17:44:38.440Z,59.35
2018-02-22T17:47:05.225Z,58.38
2018-02-22T17:49:31.953Z,53.03
2018-02-22T17:51:58.694Z,51.83
2018-02-22T17:54:25.500Z,61.28
2018-02-22T17:56:52.274Z,60.15
2018-02-22T17:59:19.042Z,54.38
2018-02-22T18:01:45.810Z,56.10
2018-02-22T18:04:12.587Z,61.25
2018-02-22T18:06:39.389Z,56.15
2018-02-22T18:09:06.126Z,60.53
2018-02-22T18:11:32.893Z,55.03
2018-02-22T18:13:59.606Z,56.08
2018-02-22T18:16:26.349Z,56.22
2018-02-22T18:18:53.089Z,57.20
2018-02-22T18:21:19.840Z,56.85
2018-02-22T18:23:46.582Z,62.83
2018-02-22T18:26:13.367Z,59.30
2018-02-22T18:28:40.227Z,57.53
2018-02-22T18:31:06.948Z,57.58
2018-02-22T18:33:33.713Z,59.20
2018-02-22T18:36:00.453Z,57.15
2018-02-22T18:38:27.228Z,56.33
2018-02-22T18:40:58.982Z,62.58
2018-02-22T18:43:41.353Z,57.03
2018-02-22T18:46:08.120Z,62.00
2018-02-22T18:48:34.845Z,62.70
2018-02-22T18:51:01.616Z,55.10
2018-02-22T18:53:28.379Z,58.35
2018-02-22T18:55:55.136Z,58.20
2018-02-22T18:58:21.895Z,66.00
2018-02-22T19:00:48.640Z,68.62
2018-02-22T19:03:15.382Z,57.58
2018-02-22T19:05:42.165Z,60.88
2018-02-22T19:08:08.885Z,62.80
2018-02-22T19:10:35.610Z,58.80
2018-02-22T19:13:02.348Z,63.72
2018-02-22T19:15:29.093Z,62.60
2018-02-22T19:17:55.869Z,63.78
2018-02-22T19:20:22.616Z,64.68
2018-02-22T19:22:49.354Z,58.28
2018-02-22T19:25:16.141Z,65.57
2018-02-22T19:27:42.854Z,61.85
2018-02-22T19:30:09.579Z,67.95
2018-02-22T19:32:36.378Z,58.92
2018-02-22T19:35:03.113Z,59.80
2018-02-22T19:37:29.864Z,62.00
2018-02-22T19:39:56.628Z,62.75
2018-02-22T19:42:23.402Z,61.08
2018-02-22T19:44:50.176Z,65.60
2018-02-22T19:47:17.046Z,65.35
2018-02-22T19:49:43.784Z,62.28
2018-02-22T19:52:10.552Z,61.67
2018-02-22T19:54:37.308Z,63.83
2018-02-22T19:57:04.038Z,61.88
2018-02-22T19:59:30.836Z,59.00
2018-02-22T20:01:57.605Z,57.78
2018-02-22T20:04:24.380Z,68.62
2018-02-22T20:06:51.110Z,62.75
2018-02-22T20:09:17.839Z,56.83
2018-02-22T20:11:44.663Z,63.65
2018-02-22T20:14:11.355Z,56.88
2018-02-22T20:16:38.134Z,57.50
2018-02-22T20:19:04.936Z,62.00
2018-02-22T20:21:31.711Z,63.38
2018-02-22T20:23:58.582Z,60.65
2018-02-22T20:26:25.379Z,73.00
2018-02-22T20:28:52.151Z,66.53
2018-02-22T20:31:18.947Z,71.93
2018-02-22T20:33:45.816Z,61.70
2018-02-22T20:36:12.619Z,69.80
2018-02-22T20:38:39.362Z,59.92
2018-02-22T20:41:06.096Z,56.55
2018-02-22T20:43:32.864Z,62.60
2018-02-22T20:45:59.743Z,62.47
2018-02-22T20:48:26.547Z,63.05
2018-02-22T20:50:55.961Z,61.55
2018-02-22T20:53:23.572Z,60.65
2018-02-22T20:55:50.343Z,63.50
2018-02-22T20:58:17.139Z,61.42
2018-02-22T21:00:43.909Z,58.17
2018-02-22T21:03:10.700Z,53.55
2018-02-22T21:05:37.516Z,59.13
2018-02-22T21:08:04.257Z,59.22
2018-02-22T21:10:31.028Z,62.50
2018-02-22T21:12:57.782Z,58.40
2018-02-22T21:15:24.514Z,56.15
2018-02-22T21:17:51.259Z,64.80
2018-02-22T21:20:17.990Z,54.42
2018-02-22T21:22:44.727Z,64.20
2018-02-22T21:25:11.470Z,67.40
2018-02-22T21:27:38.186Z,68.70
2018-02-22T21:30:04.940Z,65.65
2018-02-22T21:32:31.662Z,66.12
2018-02-22T21:34:58.407Z,62.42
2018-02-22T21:37:25.155Z,61.25
2018-02-22T21:39:51.878Z,63.90
2018-02-22T21:42:18.623Z,59.00
2018-02-22T21:44:45.362Z,60.08
2018-02-22T21:47:12.106Z,58.83
2018-02-22T21:49:38.846Z,55.70
2018-02-22T21:52:05.600Z,54.17
2018-02-22T21:54:32.320Z,54.65
2018-02-22T21:56:59.078Z,61.05
2018-02-22T21:59:25.832Z,60.78
2018-02-22T22:01:52.557Z,55.78
2018-02-22T22:04:19.307Z,55.05
2018-02-22T22:06:46.068Z,63.08
2018-02-22T22:09:12.788Z,59.83
2018-02-22T22:11:39.526Z,64.80
2018-02-22T22:14:06.251Z,59.28
2018-02-22T22:16:32.997Z,58.70
2018-02-22T22:18:59.721Z,64.68
2018-02-22T22:21:26.442Z,62.97
2018-02-22T22:23:53.182Z,58.28
2018-02-22T22:26:19.911Z,56.80
2018-02-22T22:28:46.662Z,57.22
2018-02-22T22:31:13.397Z,57.03
2018-02-22T22:33:40.116Z,73.43
2018-02-22T22:36:06.872Z,62.85
2018-02-22T22:38:33.597Z,59.75
2018-02-22T22:41:00.333Z,59.20
2018-02-22T22:43:27.068Z,66.45
2018-02-22T22:45:53.815Z,60.63
2018-02-22T22:48:20.562Z,61.13
2018-02-22T22:50:47.296Z,66.70
2018-02-22T22:53:14.043Z,67.80
2018-02-22T22:55:40.778Z,66.45
2018-02-22T22:58:07.522Z,69.00
2018-02-22T23:00:34.268Z,66.03
2018-02-22T23:03:00.989Z,75.35
2018-02-22T23:05:27.737Z,79.80
2018-02-22T23:07:54.475Z,74.80
2018-02-22T23:10:21.230Z,70.05
2018-02-22T23:12:47.965Z,74.90
2018-02-22T23:15:14.679Z,65.55
2018-02-22T23:17:41.433Z,66.55
2018-02-22T23:20:08.141Z,68.93
2018-02-22T23:22:34.885Z,72.43
2018-02-22T23:25:01.606Z,67.43
2018-02-22T23:27:28.370Z,71.03
2018-02-22T23:29:55.106Z,69.87
2018-02-22T23:32:21.853Z,69.62
2018-02-22T23:34:48.600Z,77.20
2018-02-22T23:37:15.349Z,60.97
2018-02-22T23:39:42.127Z,76.53
2018-02-22T23:42:27.593Z,71.12
2018-02-22T23:44:54.333Z,69.05
2018-02-22T23:47:21.089Z,71.35
2018-02-22T23:49:47.830Z,70.72
2018-02-22T23:52:14.599Z,72.07
2018-02-22T23:54:41.350Z,66.40
2018-02-22T23:57:08.094Z,75.87
2018-02-22T23:59:34.821Z,68.18
